sensor_id;sensor_type;location;lat;lon;timestamp;P1;durP1;ratioP1;P2;durP2;ratioP2
82646;SDS011;72325;41.910;22.404;2023-08-30T00:00:57;12.65;;;8.60;;
82646;SDS011;72325;41.910;22.404;2023-08-30T00:06:27;11.23;;;8.95;;
82646;SDS011;72325;41.910;22.404;2023-08-30T00:08:53;11.77;;;8.40;;
82646;SDS011;72325;41.910;22.404;2023-08-30T00:11:21;11.13;;;9.00;;
82646;SDS011;72325;41.910;22.404;2023-08-30T00:13:47;9.95;;;8.82;;
82646;SDS011;72325;41.910;22.404;2023-08-30T00:16:13;10.75;;;8.55;;
82646;SDS011;72325;41.910;22.404;2023-08-30T00:18:42;9.25;;;8.30;;
82646;SDS011;72325;41.910;22.404;2023-08-30T00:21:09;11.77;;;9.63;;
82646;SDS011;72325;41.910;22.404;2023-08-30T00:23:35;14.95;;;9.50;;
82646;SDS011;72325;41.910;22.404;2023-08-30T00:26:01;12.70;;;9.70;;
82646;SDS011;72325;41.910;22.404;2023-08-30T00:28:27;10.65;;;9.55;;
82646;SDS011;72325;41.910;22.404;2023-08-30T00:30:54;16.60;;;9.88;;
82646;SDS011;72325;41.910;22.404;2023-08-30T00:36:24;15.05;;;10.20;;
82646;SDS011;72325;41.910;22.404;2023-08-30T00:38:50;14.63;;;10.10;;
82646;SDS011;72325;41.910;22.404;2023-08-30T00:41:16;17.20;;;9.48;;
82646;SDS011;72325;41.910;22.404;2023-08-30T00:43:42;14.63;;;10.40;;
82646;SDS011;72325;41.910;22.404;2023-08-30T00:46:08;12.05;;;9.80;;
82646;SDS011;72325;41.910;22.404;2023-08-30T00:48:34;13.40;;;10.77;;
82646;SDS011;72325;41.910;22.404;2023-08-30T00:51:00;17.83;;;10.50;;
82646;SDS011;72325;41.910;22.404;2023-08-30T00:53:27;11.18;;;9.75;;
82646;SDS011;72325;41.910;22.404;2023-08-30T00:55:53;14.57;;;10.50;;
82646;SDS011;72325;41.910;22.404;2023-08-30T00:58:19;12.93;;;10.02;;
82646;SDS011;72325;41.910;22.404;2023-08-30T01:00:45;13.85;;;9.65;;
82646;SDS011;72325;41.910;22.404;2023-08-30T01:06:15;15.35;;;10.20;;
82646;SDS011;72325;41.910;22.404;2023-08-30T01:08:41;18.63;;;10.07;;
82646;SDS011;72325;41.910;22.404;2023-08-30T01:13:44;15.65;;;10.10;;
82646;SDS011;72325;41.910;22.404;2023-08-30T01:22:19;18.10;;;10.18;;
82646;SDS011;72325;41.910;22.404;2023-08-30T01:27:19;11.38;;;9.82;;
82646;SDS011;72325;41.910;22.404;2023-08-30T01:29:45;13.73;;;10.35;;
82646;SDS011;72325;41.910;22.404;2023-08-30T01:32:12;13.57;;;9.70;;
82646;SDS011;72325;41.910;22.404;2023-08-30T01:34:39;17.13;;;10.32;;
82646;SDS011;72325;41.910;22.404;2023-08-30T01:37:08;16.52;;;10.48;;
82646;SDS011;72325;41.910;22.404;2023-08-30T01:39:36;13.25;;;10.20;;
82646;SDS011;72325;41.910;22.404;2023-08-30T01:42:02;14.07;;;10.43;;
82646;SDS011;72325;41.910;22.404;2023-08-30T01:44:30;13.13;;;10.30;;
82646;SDS011;72325;41.910;22.404;2023-08-30T01:46:56;13.23;;;9.90;;
82646;SDS011;72325;41.910;22.404;2023-08-30T01:49:23;10.45;;;8.77;;
82646;SDS011;72325;41.910;22.404;2023-08-30T01:51:50;13.75;;;9.85;;
82646;SDS011;72325;41.910;22.404;2023-08-30T01:54:17;13.55;;;10.20;;
82646;SDS011;72325;41.910;22.404;2023-08-30T01:56:47;11.02;;;9.90;;
82646;SDS011;72325;41.910;22.404;2023-08-30T01:59:13;14.07;;;9.93;;
82646;SDS011;72325;41.910;22.404;2023-08-30T02:01:39;13.95;;;9.50;;
82646;SDS011;72325;41.910;22.404;2023-08-30T02:04:05;11.82;;;9.80;;
82646;SDS011;72325;41.910;22.404;2023-08-30T02:06:40;15.23;;;9.40;;
82646;SDS011;72325;41.910;22.404;2023-08-30T02:11:43;12.10;;;9.82;;
82646;SDS011;72325;41.910;22.404;2023-08-30T02:14:10;14.25;;;10.10;;
82646;SDS011;72325;41.910;22.404;2023-08-30T02:16:39;11.85;;;8.77;;
82646;SDS011;72325;41.910;22.404;2023-08-30T02:19:06;11.23;;;9.38;;
82646;SDS011;72325;41.910;22.404;2023-08-30T02:21:33;11.23;;;9.20;;
82646;SDS011;72325;41.910;22.404;2023-08-30T02:23:59;12.43;;;9.55;;
82646;SDS011;72325;41.910;22.404;2023-08-30T02:26:25;11.80;;;9.57;;
82646;SDS011;72325;41.910;22.404;2023-08-30T02:28:51;12.48;;;9.63;;
82646;SDS011;72325;41.910;22.404;2023-08-30T02:31:17;14.43;;;9.07;;
82646;SDS011;72325;41.910;22.404;2023-08-30T02:36:47;14.70;;;9.75;;
82646;SDS011;72325;41.910;22.404;2023-08-30T02:39:13;12.32;;;9.65;;
82646;SDS011;72325;41.910;22.404;2023-08-30T02:41:42;16.90;;;10.73;;
82646;SDS011;72325;41.910;22.404;2023-08-30T02:44:10;12.20;;;10.32;;
82646;SDS011;72325;41.910;22.404;2023-08-30T02:46:36;15.02;;;9.80;;
82646;SDS011;72325;41.910;22.404;2023-08-30T02:49:03;13.80;;;10.07;;
82646;SDS011;72325;41.910;22.404;2023-08-30T02:51:30;18.42;;;11.32;;
82646;SDS011;72325;41.910;22.404;2023-08-30T02:53:56;12.02;;;10.63;;
82646;SDS011;72325;41.910;22.404;2023-08-30T02:56:22;14.40;;;10.70;;
82646;SDS011;72325;41.910;22.404;2023-08-30T02:58:48;14.90;;;10.63;;
82646;SDS011;72325;41.910;22.404;2023-08-30T03:01:14;13.77;;;10.95;;
82646;SDS011;72325;41.910;22.404;2023-08-30T03:06:44;14.63;;;10.93;;
82646;SDS011;72325;41.910;22.404;2023-08-30T03:09:10;14.23;;;9.80;;
82646;SDS011;72325;41.910;22.404;2023-08-30T03:11:36;14.48;;;9.60;;
82646;SDS011;72325;41.910;22.404;2023-08-30T03:14:03;13.95;;;10.30;;
82646;SDS011;72325;41.910;22.404;2023-08-30T03:16:29;13.57;;;10.00;;
82646;SDS011;72325;41.910;22.404;2023-08-30T03:18:55;14.57;;;10.55;;
82646;SDS011;72325;41.910;22.404;2023-08-30T03:21:21;17.00;;;10.98;;
82646;SDS011;72325;41.910;22.404;2023-08-30T03:23:47;11.60;;;10.40;;
82646;SDS011;72325;41.910;22.404;2023-08-30T03:26:14;11.30;;;9.63;;
82646;SDS011;72325;41.910;22.404;2023-08-30T03:28:41;11.95;;;9.95;;
82646;SDS011;72325;41.910;22.404;2023-08-30T03:31:11;11.25;;;9.10;;
82646;SDS011;72325;41.910;22.404;2023-08-30T03:36:41;10.95;;;9.05;;
82646;SDS011;72325;41.910;22.404;2023-08-30T03:39:09;15.93;;;9.82;;
82646;SDS011;72325;41.910;22.404;2023-08-30T03:41:35;12.85;;;10.35;;
82646;SDS011;72325;41.910;22.404;2023-08-30T03:44:01;13.25;;;9.48;;
82646;SDS011;72325;41.910;22.404;2023-08-30T03:46:27;11.73;;;9.82;;
82646;SDS011;72325;41.910;22.404;2023-08-30T03:51:56;14.23;;;9.85;;
82646;SDS011;72325;41.910;22.404;2023-08-30T03:54:23;14.70;;;9.73;;
82646;SDS011;72325;41.910;22.404;2023-08-30T03:56:49;15.57;;;10.10;;
82646;SDS011;72325;41.910;22.404;2023-08-30T03:59:15;14.50;;;10.38;;
82646;SDS011;72325;41.910;22.404;2023-08-30T04:01:41;12.23;;;10.15;;
82646;SDS011;72325;41.910;22.404;2023-08-30T04:04:07;16.73;;;10.70;;
82646;SDS011;72325;41.910;22.404;2023-08-30T04:06:33;14.27;;;9.48;;
82646;SDS011;72325;41.910;22.404;2023-08-30T04:08:59;13.10;;;9.60;;
82646;SDS011;72325;41.910;22.404;2023-08-30T04:11:25;16.05;;;9.90;;
82646;SDS011;72325;41.910;22.404;2023-08-30T04:13:51;13.13;;;10.27;;
82646;SDS011;72325;41.910;22.404;2023-08-30T04:16:18;15.05;;;11.30;;
82646;SDS011;72325;41.910;22.404;2023-08-30T04:21:47;17.45;;;10.40;;
82646;SDS011;72325;41.910;22.404;2023-08-30T04:24:14;13.98;;;10.48;;
82646;SDS011;72325;41.910;22.404;2023-08-30T04:26:40;15.98;;;11.27;;
82646;SDS011;72325;41.910;22.404;2023-08-30T04:29:06;19.52;;;14.32;;
82646;SDS011;72325;41.910;22.404;2023-08-30T04:31:32;14.20;;;10.25;;
82646;SDS011;72325;41.910;22.404;2023-08-30T04:37:02;13.98;;;10.73;;
82646;SDS011;72325;41.910;22.404;2023-08-30T04:39:28;16.75;;;11.02;;
82646;SDS011;72325;41.910;22.404;2023-08-30T04:41:54;16.52;;;11.23;;
82646;SDS011;72325;41.910;22.404;2023-08-30T04:44:21;13.93;;;11.40;;
82646;SDS011;72325;41.910;22.404;2023-08-30T04:46:50;14.80;;;11.18;;
82646;SDS011;72325;41.910;22.404;2023-08-30T04:49:17;14.95;;;11.82;;
82646;SDS011;72325;41.910;22.404;2023-08-30T04:51:43;16.23;;;11.10;;
82646;SDS011;72325;41.910;22.404;2023-08-30T04:54:09;18.10;;;11.05;;
82646;SDS011;72325;41.910;22.404;2023-08-30T04:56:35;18.65;;;12.10;;
82646;SDS011;72325;41.910;22.404;2023-08-30T04:59:01;16.88;;;11.60;;
82646;SDS011;72325;41.910;22.404;2023-08-30T05:01:29;15.13;;;10.15;;
82646;SDS011;72325;41.910;22.404;2023-08-30T05:06:59;19.58;;;11.40;;
82646;SDS011;72325;41.910;22.404;2023-08-30T05:09:25;16.38;;;12.50;;
82646;SDS011;72325;41.910;22.404;2023-08-30T05:11:52;14.27;;;11.55;;
82646;SDS011;72325;41.910;22.404;2023-08-30T05:14:19;16.63;;;10.88;;
82646;SDS011;72325;41.910;22.404;2023-08-30T05:16:45;14.57;;;10.93;;
82646;SDS011;72325;41.910;22.404;2023-08-30T05:22:14;13.50;;;9.68;;
82646;SDS011;72325;41.910;22.404;2023-08-30T05:24:40;13.07;;;9.48;;
82646;SDS011;72325;41.910;22.404;2023-08-30T05:27:06;13.05;;;9.45;;
82646;SDS011;72325;41.910;22.404;2023-08-30T05:29:33;13.30;;;9.82;;
82646;SDS011;72325;41.910;22.404;2023-08-30T05:31:59;11.38;;;10.00;;
82646;SDS011;72325;41.910;22.404;2023-08-30T05:37:28;14.18;;;10.43;;
82646;SDS011;72325;41.910;22.404;2023-08-30T05:39:54;13.20;;;9.30;;
82646;SDS011;72325;41.910;22.404;2023-08-30T05:42:20;14.00;;;10.10;;
82646;SDS011;72325;41.910;22.404;2023-08-30T05:44:46;14.57;;;10.57;;
82646;SDS011;72325;41.910;22.404;2023-08-30T05:47:13;12.93;;;9.63;;
82646;SDS011;72325;41.910;22.404;2023-08-30T05:49:41;13.30;;;10.45;;
82646;SDS011;72325;41.910;22.404;2023-08-30T05:52:08;13.73;;;10.05;;
82646;SDS011;72325;41.910;22.404;2023-08-30T05:54:34;13.48;;;9.45;;
82646;SDS011;72325;41.910;22.404;2023-08-30T05:57:00;14.20;;;9.50;;
82646;SDS011;72325;41.910;22.404;2023-08-30T05:59:26;19.17;;;9.93;;
82646;SDS011;72325;41.910;22.404;2023-08-30T06:01:53;16.27;;;9.75;;
82646;SDS011;72325;41.910;22.404;2023-08-30T06:07:22;13.77;;;10.27;;
82646;SDS011;72325;41.910;22.404;2023-08-30T06:09:48;16.95;;;9.63;;
82646;SDS011;72325;41.910;22.404;2023-08-30T06:12:14;13.02;;;9.82;;
82646;SDS011;72325;41.910;22.404;2023-08-30T06:14:41;14.82;;;9.13;;
82646;SDS011;72325;41.910;22.404;2023-08-30T06:17:07;13.75;;;9.80;;
82646;SDS011;72325;41.910;22.404;2023-08-30T06:22:37;12.45;;;8.85;;
82646;SDS011;72325;41.910;22.404;2023-08-30T06:25:04;15.80;;;9.35;;
82646;SDS011;72325;41.910;22.404;2023-08-30T06:27:32;12.20;;;9.25;;
82646;SDS011;72325;41.910;22.404;2023-08-30T06:29:58;11.30;;;9.80;;
82646;SDS011;72325;41.910;22.404;2023-08-30T06:32:24;13.23;;;9.40;;
82646;SDS011;72325;41.910;22.404;2023-08-30T06:34:50;13.07;;;9.15;;
82646;SDS011;72325;41.910;22.404;2023-08-30T06:37:16;17.90;;;8.75;;
82646;SDS011;72325;41.910;22.404;2023-08-30T06:39:42;11.43;;;8.80;;
82646;SDS011;72325;41.910;22.404;2023-08-30T06:42:08;11.48;;;8.65;;
82646;SDS011;72325;41.910;22.404;2023-08-30T06:44:34;11.55;;;8.80;;
82646;SDS011;72325;41.910;22.404;2023-08-30T06:47:01;14.10;;;8.45;;
82646;SDS011;72325;41.910;22.404;2023-08-30T06:52:31;11.48;;;8.55;;
82646;SDS011;72325;41.910;22.404;2023-08-30T06:54:57;11.45;;;8.55;;
82646;SDS011;72325;41.910;22.404;2023-08-30T06:57:23;23.90;;;18.80;;
82646;SDS011;72325;41.910;22.404;2023-08-30T06:59:49;11.52;;;8.85;;
82646;SDS011;72325;41.910;22.404;2023-08-30T07:02:15;10.18;;;7.80;;
82646;SDS011;72325;41.910;22.404;2023-08-30T07:07:44;10.95;;;7.53;;
82646;SDS011;72325;41.910;22.404;2023-08-30T07:10:13;11.10;;;6.65;;
82646;SDS011;72325;41.910;22.404;2023-08-30T07:12:42;10.55;;;7.07;;
82646;SDS011;72325;41.910;22.404;2023-08-30T07:15:13;10.02;;;6.72;;
82646;SDS011;72325;41.910;22.404;2023-08-30T07:17:41;9.90;;;7.28;;
82646;SDS011;72325;41.910;22.404;2023-08-30T07:20:08;11.05;;;7.63;;
82646;SDS011;72325;41.910;22.404;2023-08-30T07:22:34;7.90;;;6.22;;
82646;SDS011;72325;41.910;22.404;2023-08-30T07:25:00;8.07;;;6.43;;
82646;SDS011;72325;41.910;22.404;2023-08-30T07:27:28;9.18;;;6.97;;
82646;SDS011;72325;41.910;22.404;2023-08-30T07:29:54;9.00;;;6.78;;
82646;SDS011;72325;41.910;22.404;2023-08-30T07:32:20;14.85;;;8.45;;
82646;SDS011;72325;41.910;22.404;2023-08-30T07:37:50;16.30;;;9.93;;
82646;SDS011;72325;41.910;22.404;2023-08-30T07:40:16;9.23;;;6.55;;
82646;SDS011;72325;41.910;22.404;2023-08-30T07:42:42;11.65;;;7.35;;
82646;SDS011;72325;41.910;22.404;2023-08-30T07:45:08;9.30;;;6.18;;
82646;SDS011;72325;41.910;22.404;2023-08-30T07:47:35;11.07;;;6.70;;
82646;SDS011;72325;41.910;22.404;2023-08-30T07:53:05;11.05;;;6.90;;
82646;SDS011;72325;41.910;22.404;2023-08-30T07:55:31;8.90;;;6.50;;
82646;SDS011;72325;41.910;22.404;2023-08-30T07:57:57;13.25;;;7.20;;
82646;SDS011;72325;41.910;22.404;2023-08-30T08:00:23;8.50;;;6.00;;
82646;SDS011;72325;41.910;22.404;2023-08-30T08:02:49;10.85;;;6.22;;
82646;SDS011;72325;41.910;22.404;2023-08-30T08:05:20;8.55;;;6.03;;
82646;SDS011;72325;41.910;22.404;2023-08-30T08:07:51;10.05;;;6.82;;
82646;SDS011;72325;41.910;22.404;2023-08-30T08:12:47;8.05;;;5.13;;
82646;SDS011;72325;41.910;22.404;2023-08-30T08:15:13;8.43;;;4.30;;
82646;SDS011;72325;41.910;22.404;2023-08-30T08:17:39;6.25;;;4.68;;
82646;SDS011;72325;41.910;22.404;2023-08-30T08:23:09;6.43;;;3.50;;
82646;SDS011;72325;41.910;22.404;2023-08-30T08:25:35;5.82;;;3.63;;
82646;SDS011;72325;41.910;22.404;2023-08-30T08:28:01;6.18;;;3.40;;
82646;SDS011;72325;41.910;22.404;2023-08-30T08:30:28;6.32;;;3.53;;
82646;SDS011;72325;41.910;22.404;2023-08-30T08:32:54;6.85;;;4.35;;
82646;SDS011;72325;41.910;22.404;2023-08-30T08:35:21;9.50;;;3.03;;
82646;SDS011;72325;41.910;22.404;2023-08-30T08:37:47;5.75;;;2.85;;
82646;SDS011;72325;41.910;22.404;2023-08-30T08:40:13;5.47;;;2.63;;
82646;SDS011;72325;41.910;22.404;2023-08-30T08:42:39;4.50;;;2.60;;
82646;SDS011;72325;41.910;22.404;2023-08-30T08:45:05;5.85;;;2.50;;
82646;SDS011;72325;41.910;22.404;2023-08-30T08:47:32;7.13;;;2.95;;
82646;SDS011;72325;41.910;22.404;2023-08-30T08:53:02;5.32;;;2.83;;
82646;SDS011;72325;41.910;22.404;2023-08-30T08:55:29;6.43;;;3.15;;
82646;SDS011;72325;41.910;22.404;2023-08-30T08:57:56;5.25;;;2.83;;
82646;SDS011;72325;41.910;22.404;2023-08-30T09:00:23;7.13;;;3.15;;
82646;SDS011;72325;41.910;22.404;2023-08-30T09:02:50;5.97;;;2.78;;
82646;SDS011;72325;41.910;22.404;2023-08-30T09:08:20;4.25;;;2.47;;
82646;SDS011;72325;41.910;22.404;2023-08-30T09:10:47;6.57;;;3.15;;
82646;SDS011;72325;41.910;22.404;2023-08-30T09:13:15;6.10;;;3.72;;
82646;SDS011;72325;41.910;22.404;2023-08-30T09:15:41;5.68;;;2.83;;
82646;SDS011;72325;41.910;22.404;2023-08-30T09:24:15;4.57;;;2.40;;
82646;SDS011;72325;41.910;22.404;2023-08-30T09:26:46;5.80;;;3.40;;
82646;SDS011;72325;41.910;22.404;2023-08-30T09:29:12;5.10;;;3.03;;
82646;SDS011;72325;41.910;22.404;2023-08-30T09:31:39;8.25;;;4.03;;
82646;SDS011;72325;41.910;22.404;2023-08-30T09:34:06;5.90;;;3.55;;
82646;SDS011;72325;41.910;22.404;2023-08-30T09:36:36;9.18;;;3.47;;
82646;SDS011;72325;41.910;22.404;2023-08-30T09:39:03;6.30;;;2.92;;
82646;SDS011;72325;41.910;22.404;2023-08-30T09:41:29;4.95;;;3.22;;
82646;SDS011;72325;41.910;22.404;2023-08-30T09:43:58;7.05;;;3.42;;
82646;SDS011;72325;41.910;22.404;2023-08-30T09:46:24;5.70;;;3.60;;
82646;SDS011;72325;41.910;22.404;2023-08-30T09:48:50;7.47;;;3.47;;
82646;SDS011;72325;41.910;22.404;2023-08-30T09:51:16;7.45;;;3.83;;
82646;SDS011;72325;41.910;22.404;2023-08-30T09:53:44;7.93;;;3.15;;
82646;SDS011;72325;41.910;22.404;2023-08-30T09:56:11;9.75;;;3.88;;
82646;SDS011;72325;41.910;22.404;2023-08-30T09:58:39;5.43;;;2.90;;
82646;SDS011;72325;41.910;22.404;2023-08-30T10:01:07;6.03;;;3.30;;
82646;SDS011;72325;41.910;22.404;2023-08-30T10:03:33;5.78;;;2.80;;
82646;SDS011;72325;41.910;22.404;2023-08-30T10:06:00;7.63;;;3.50;;
82646;SDS011;72325;41.910;22.404;2023-08-30T10:08:30;8.00;;;3.45;;
82646;SDS011;72325;41.910;22.404;2023-08-30T10:10:58;4.10;;;2.80;;
82646;SDS011;72325;41.910;22.404;2023-08-30T10:13:25;8.20;;;3.28;;
82646;SDS011;72325;41.910;22.404;2023-08-30T10:15:52;5.55;;;3.20;;
82646;SDS011;72325;41.910;22.404;2023-08-30T10:18:20;6.25;;;3.92;;
82646;SDS011;72325;41.910;22.404;2023-08-30T10:23:51;6.35;;;2.92;;
82646;SDS011;72325;41.910;22.404;2023-08-30T10:26:20;7.22;;;3.45;;
82646;SDS011;72325;41.910;22.404;2023-08-30T10:28:48;4.22;;;3.10;;
82646;SDS011;72325;41.910;22.404;2023-08-30T10:31:14;7.63;;;3.10;;
82646;SDS011;72325;41.910;22.404;2023-08-30T10:33:47;8.80;;;3.92;;
82646;SDS011;72325;41.910;22.404;2023-08-30T10:36:19;6.75;;;3.50;;
82646;SDS011;72325;41.910;22.404;2023-08-30T10:38:48;4.35;;;2.97;;
82646;SDS011;72325;41.910;22.404;2023-08-30T10:41:19;5.75;;;3.50;;
82646;SDS011;72325;41.910;22.404;2023-08-30T10:43:48;4.60;;;3.00;;
82646;SDS011;72325;41.910;22.404;2023-08-30T10:46:14;6.88;;;3.13;;
82646;SDS011;72325;41.910;22.404;2023-08-30T10:48:41;5.22;;;3.33;;
82646;SDS011;72325;41.910;22.404;2023-08-30T10:51:20;6.68;;;4.57;;
82646;SDS011;72325;41.910;22.404;2023-08-30T10:53:56;5.10;;;2.75;;
82646;SDS011;72325;41.910;22.404;2023-08-30T10:56:29;6.22;;;3.35;;
82646;SDS011;72325;41.910;22.404;2023-08-30T10:58:56;6.32;;;3.17;;
82646;SDS011;72325;41.910;22.404;2023-08-30T11:01:22;5.97;;;3.63;;
82646;SDS011;72325;41.910;22.404;2023-08-30T11:03:49;5.82;;;2.80;;
82646;SDS011;72325;41.910;22.404;2023-08-30T11:06:15;7.47;;;4.15;;
82646;SDS011;72325;41.910;22.404;2023-08-30T11:08:42;4.38;;;2.80;;
82646;SDS011;72325;41.910;22.404;2023-08-30T11:11:09;5.70;;;3.30;;
82646;SDS011;72325;41.910;22.404;2023-08-30T11:16:03;4.97;;;3.13;;
82646;SDS011;72325;41.910;22.404;2023-08-30T11:18:30;6.35;;;3.15;;
82646;SDS011;72325;41.910;22.404;2023-08-30T11:23:59;6.70;;;3.42;;
82646;SDS011;72325;41.910;22.404;2023-08-30T11:26:25;5.05;;;3.22;;
82646;SDS011;72325;41.910;22.404;2023-08-30T11:28:54;2.75;;;1.98;;
82646;SDS011;72325;41.910;22.404;2023-08-30T11:31:21;8.50;;;6.03;;
82646;SDS011;72325;41.910;22.404;2023-08-30T11:39:54;4.78;;;2.70;;
82646;SDS011;72325;41.910;22.404;2023-08-30T11:42:21;6.00;;;3.33;;
82646;SDS011;72325;41.910;22.404;2023-08-30T11:44:47;4.68;;;3.03;;
82646;SDS011;72325;41.910;22.404;2023-08-30T11:47:20;4.18;;;2.20;;
82646;SDS011;72325;41.910;22.404;2023-08-30T11:49:47;4.35;;;2.58;;
82646;SDS011;72325;41.910;22.404;2023-08-30T11:52:14;5.93;;;2.88;;
82646;SDS011;72325;41.910;22.404;2023-08-30T11:54:41;5.47;;;3.05;;
82646;SDS011;72325;41.910;22.404;2023-08-30T11:57:08;4.57;;;2.28;;
82646;SDS011;72325;41.910;22.404;2023-08-30T11:59:34;6.28;;;3.10;;
82646;SDS011;72325;41.910;22.404;2023-08-30T12:02:01;4.40;;;2.60;;
82646;SDS011;72325;41.910;22.404;2023-08-30T12:04:27;6.00;;;3.03;;
82646;SDS011;72325;41.910;22.404;2023-08-30T12:06:53;3.90;;;2.45;;
82646;SDS011;72325;41.910;22.404;2023-08-30T12:09:19;6.18;;;2.97;;
82646;SDS011;72325;41.910;22.404;2023-08-30T12:11:49;4.13;;;2.72;;
82646;SDS011;72325;41.910;22.404;2023-08-30T12:14:15;5.55;;;2.80;;
82646;SDS011;72325;41.910;22.404;2023-08-30T12:16:42;6.05;;;3.38;;
82646;SDS011;72325;41.910;22.404;2023-08-30T12:19:11;5.13;;;2.60;;
82646;SDS011;72325;41.910;22.404;2023-08-30T12:21:43;6.57;;;3.17;;
82646;SDS011;72325;41.910;22.404;2023-08-30T12:24:10;6.05;;;2.78;;
82646;SDS011;72325;41.910;22.404;2023-08-30T12:26:36;4.97;;;2.88;;
82646;SDS011;72325;41.910;22.404;2023-08-30T12:29:03;4.30;;;3.05;;
82646;SDS011;72325;41.910;22.404;2023-08-30T12:31:30;4.85;;;3.05;;
82646;SDS011;72325;41.910;22.404;2023-08-30T12:33:56;4.45;;;2.90;;
82646;SDS011;72325;41.910;22.404;2023-08-30T12:39:26;5.88;;;3.13;;
82646;SDS011;72325;41.910;22.404;2023-08-30T12:41:52;5.80;;;3.45;;
82646;SDS011;72325;41.910;22.404;2023-08-30T12:44:18;4.95;;;3.10;;
82646;SDS011;72325;41.910;22.404;2023-08-30T12:46:44;6.75;;;3.25;;
82646;SDS011;72325;41.910;22.404;2023-08-30T12:49:10;8.07;;;3.13;;
82646;SDS011;72325;41.910;22.404;2023-08-30T12:51:36;4.30;;;2.95;;
82646;SDS011;72325;41.910;22.404;2023-08-30T12:54:03;5.00;;;2.95;;
82646;SDS011;72325;41.910;22.404;2023-08-30T12:56:29;6.30;;;3.20;;
82646;SDS011;72325;41.910;22.404;2023-08-30T12:58:55;7.20;;;3.00;;
82646;SDS011;72325;41.910;22.404;2023-08-30T13:01:21;6.13;;;2.80;;
82646;SDS011;72325;41.910;22.404;2023-08-30T13:03:49;2.72;;;2.10;;
82646;SDS011;72325;41.910;22.404;2023-08-30T13:09:19;4.93;;;2.97;;
82646;SDS011;72325;41.910;22.404;2023-08-30T13:11:45;5.82;;;2.92;;
82646;SDS011;72325;41.910;22.404;2023-08-30T13:14:11;5.78;;;3.30;;
82646;SDS011;72325;41.910;22.404;2023-08-30T13:16:37;5.10;;;3.10;;
82646;SDS011;72325;41.910;22.404;2023-08-30T13:19:03;5.07;;;3.17;;
82646;SDS011;72325;41.910;22.404;2023-08-30T13:24:32;5.47;;;3.50;;
82646;SDS011;72325;41.910;22.404;2023-08-30T13:26:59;6.35;;;3.25;;
82646;SDS011;72325;41.910;22.404;2023-08-30T13:29:25;5.15;;;2.97;;
82646;SDS011;72325;41.910;22.404;2023-08-30T13:31:51;6.00;;;3.72;;
82646;SDS011;72325;41.910;22.404;2023-08-30T13:34:17;5.78;;;3.72;;
82646;SDS011;72325;41.910;22.404;2023-08-30T13:36:43;7.35;;;3.80;;
82646;SDS011;72325;41.910;22.404;2023-08-30T13:39:09;5.50;;;3.28;;
82646;SDS011;72325;41.910;22.404;2023-08-30T13:41:36;5.03;;;3.50;;
82646;SDS011;72325;41.910;22.404;2023-08-30T13:44:02;5.93;;;2.92;;
82646;SDS011;72325;41.910;22.404;2023-08-30T13:46:29;7.10;;;3.00;;
82646;SDS011;72325;41.910;22.404;2023-08-30T13:48:55;4.90;;;2.58;;
82646;SDS011;72325;41.910;22.404;2023-08-30T13:51:22;4.43;;;2.40;;
82646;SDS011;72325;41.910;22.404;2023-08-30T13:53:48;6.75;;;3.00;;
82646;SDS011;72325;41.910;22.404;2023-08-30T13:56:14;5.13;;;2.40;;
82646;SDS011;72325;41.910;22.404;2023-08-30T13:58:40;4.90;;;2.90;;
82646;SDS011;72325;41.910;22.404;2023-08-30T14:01:07;5.10;;;2.90;;
82646;SDS011;72325;41.910;22.404;2023-08-30T14:03:34;4.72;;;2.90;;
82646;SDS011;72325;41.910;22.404;2023-08-30T14:06:00;4.97;;;2.78;;
82646;SDS011;72325;41.910;22.404;2023-08-30T14:08:26;8.23;;;3.15;;
82646;SDS011;72325;41.910;22.404;2023-08-30T14:10:54;5.65;;;2.60;;
82646;SDS011;72325;41.910;22.404;2023-08-30T14:13:20;5.05;;;2.40;;
82646;SDS011;72325;41.910;22.404;2023-08-30T14:15:46;4.82;;;2.45;;
82646;SDS011;72325;41.910;22.404;2023-08-30T14:18:13;4.78;;;2.60;;
82646;SDS011;72325;41.910;22.404;2023-08-30T14:20:40;4.25;;;2.30;;
82646;SDS011;72325;41.910;22.404;2023-08-30T14:23:07;5.00;;;2.38;;
82646;SDS011;72325;41.910;22.404;2023-08-30T14:25:33;5.82;;;2.15;;
82646;SDS011;72325;41.910;22.404;2023-08-30T14:28:00;5.28;;;2.28;;
82646;SDS011;72325;41.910;22.404;2023-08-30T14:30:26;5.13;;;2.22;;
82646;SDS011;72325;41.910;22.404;2023-08-30T14:32:52;5.78;;;2.78;;
82646;SDS011;72325;41.910;22.404;2023-08-30T14:35:18;5.57;;;2.30;;
82646;SDS011;72325;41.910;22.404;2023-08-30T14:37:49;4.47;;;2.40;;
82646;SDS011;72325;41.910;22.404;2023-08-30T14:40:15;4.60;;;2.20;;
82646;SDS011;72325;41.910;22.404;2023-08-30T14:42:42;5.30;;;2.30;;
82646;SDS011;72325;41.910;22.404;2023-08-30T14:45:08;6.32;;;3.60;;
82646;SDS011;72325;41.910;22.404;2023-08-30T14:47:34;4.63;;;1.98;;
82646;SDS011;72325;41.910;22.404;2023-08-30T14:50:00;7.03;;;4.45;;
82646;SDS011;72325;41.910;22.404;2023-08-30T14:52:28;5.20;;;2.28;;
82646;SDS011;72325;41.910;22.404;2023-08-30T14:54:54;6.75;;;3.78;;
82646;SDS011;72325;41.910;22.404;2023-08-30T14:57:21;10.85;;;4.35;;
82646;SDS011;72325;41.910;22.404;2023-08-30T14:59:47;10.52;;;5.38;;
82646;SDS011;72325;41.910;22.404;2023-08-30T15:02:13;5.85;;;2.83;;
82646;SDS011;72325;41.910;22.404;2023-08-30T15:04:40;7.30;;;2.70;;
82646;SDS011;72325;41.910;22.404;2023-08-30T15:07:06;6.43;;;2.55;;
82646;SDS011;72325;41.910;22.404;2023-08-30T15:09:32;6.93;;;2.53;;
82646;SDS011;72325;41.910;22.404;2023-08-30T15:11:58;5.10;;;2.40;;
82646;SDS011;72325;41.910;22.404;2023-08-30T15:14:25;5.43;;;2.33;;
82646;SDS011;72325;41.910;22.404;2023-08-30T15:16:51;6.07;;;2.53;;
82646;SDS011;72325;41.910;22.404;2023-08-30T15:19:17;6.20;;;2.40;;
82646;SDS011;72325;41.910;22.404;2023-08-30T15:24:46;4.80;;;2.20;;
82646;SDS011;72325;41.910;22.404;2023-08-30T15:27:12;6.68;;;2.42;;
82646;SDS011;72325;41.910;22.404;2023-08-30T15:29:38;4.75;;;2.20;;
82646;SDS011;72325;41.910;22.404;2023-08-30T15:32:04;5.28;;;2.55;;
82646;SDS011;72325;41.910;22.404;2023-08-30T15:34:31;11.77;;;8.55;;
82646;SDS011;72325;41.910;22.404;2023-08-30T15:40:01;5.32;;;2.90;;
82646;SDS011;72325;41.910;22.404;2023-08-30T15:42:31;5.57;;;2.63;;
82646;SDS011;72325;41.910;22.404;2023-08-30T15:44:58;5.00;;;2.40;;
82646;SDS011;72325;41.910;22.404;2023-08-30T15:47:24;5.97;;;2.53;;
82646;SDS011;72325;41.910;22.404;2023-08-30T15:49:50;5.50;;;2.33;;
82646;SDS011;72325;41.910;22.404;2023-08-30T15:52:16;5.18;;;2.70;;
82646;SDS011;72325;41.910;22.404;2023-08-30T15:54:42;5.30;;;2.78;;
82646;SDS011;72325;41.910;22.404;2023-08-30T15:57:08;6.47;;;3.00;;
82646;SDS011;72325;41.910;22.404;2023-08-30T15:59:34;4.60;;;3.05;;
82646;SDS011;72325;41.910;22.404;2023-08-30T16:02:00;13.35;;;7.22;;
82646;SDS011;72325;41.910;22.404;2023-08-30T16:04:26;7.38;;;2.47;;
82646;SDS011;72325;41.910;22.404;2023-08-30T16:09:56;4.80;;;2.55;;
82646;SDS011;72325;41.910;22.404;2023-08-30T16:12:22;3.88;;;2.58;;
82646;SDS011;72325;41.910;22.404;2023-08-30T16:14:48;17.88;;;11.35;;
82646;SDS011;72325;41.910;22.404;2023-08-30T16:17:14;10.73;;;6.18;;
82646;SDS011;72325;41.910;22.404;2023-08-30T16:19:40;7.80;;;4.13;;
82646;SDS011;72325;41.910;22.404;2023-08-30T16:25:10;5.78;;;2.90;;